sensor_id;sensor_type;location;lat;lon;timestamp;P1;durP1;ratioP1;P2;durP2;ratioP2
12623;SDS011;6377;42.836;23.998;2023-08-20T00:01:30;4.63;;;4.22;;
12623;SDS011;6377;42.836;23.998;2023-08-20T00:03:58;4.78;;;4.22;;
12623;SDS011;6377;42.836;23.998;2023-08-20T00:06:26;4.43;;;4.03;;
12623;SDS011;6377;42.836;23.998;2023-08-20T00:08:55;5.10;;;4.50;;
12623;SDS011;6377;42.836;23.998;2023-08-20T00:11:22;5.18;;;4.00;;
12623;SDS011;6377;42.836;23.998;2023-08-20T00:13:50;4.55;;;4.15;;
12623;SDS011;6377;42.836;23.998;2023-08-20T00:16:18;5.13;;;4.53;;
12623;SDS011;6377;42.836;23.998;2023-08-20T00:18:46;4.72;;;4.07;;
12623;SDS011;6377;42.836;23.998;2023-08-20T00:21:13;5.00;;;4.35;;
12623;SDS011;6377;42.836;23.998;2023-08-20T00:23:41;5.40;;;4.70;;
12623;SDS011;6377;42.836;23.998;2023-08-20T00:26:11;4.75;;;4.22;;
12623;SDS011;6377;42.836;23.998;2023-08-20T00:28:39;4.80;;;4.35;;
12623;SDS011;6377;42.836;23.998;2023-08-20T00:31:06;4.93;;;4.40;;
12623;SDS011;6377;42.836;23.998;2023-08-20T00:33:33;4.72;;;4.30;;
12623;SDS011;6377;42.836;23.998;2023-08-20T00:36:01;4.82;;;4.32;;
12623;SDS011;6377;42.836;23.998;2023-08-20T00:38:29;5.07;;;4.25;;
12623;SDS011;6377;42.836;23.998;2023-08-20T00:40:56;5.30;;;4.45;;
12623;SDS011;6377;42.836;23.998;2023-08-20T00:43:25;5.50;;;4.82;;
12623;SDS011;6377;42.836;23.998;2023-08-20T00:45:52;5.82;;;4.53;;
12623;SDS011;6377;42.836;23.998;2023-08-20T00:48:19;4.85;;;4.45;;
12623;SDS011;6377;42.836;23.998;2023-08-20T00:50:47;6.40;;;4.68;;
12623;SDS011;6377;42.836;23.998;2023-08-20T00:53:15;4.97;;;4.55;;
12623;SDS011;6377;42.836;23.998;2023-08-20T00:55:42;5.18;;;4.45;;
12623;SDS011;6377;42.836;23.998;2023-08-20T00:58:10;5.00;;;4.50;;
12623;SDS011;6377;42.836;23.998;2023-08-20T01:00:39;4.82;;;4.32;;
12623;SDS011;6377;42.836;23.998;2023-08-20T01:03:07;6.65;;;4.60;;
12623;SDS011;6377;42.836;23.998;2023-08-20T01:05:36;4.97;;;4.47;;
12623;SDS011;6377;42.836;23.998;2023-08-20T01:08:16;5.20;;;4.43;;
12623;SDS011;6377;42.836;23.998;2023-08-20T01:10:56;7.20;;;4.70;;
12623;SDS011;6377;42.836;23.998;2023-08-20T01:13:28;5.00;;;4.30;;
12623;SDS011;6377;42.836;23.998;2023-08-20T01:15:57;4.90;;;4.30;;
12623;SDS011;6377;42.836;23.998;2023-08-20T01:18:24;5.80;;;4.50;;
12623;SDS011;6377;42.836;23.998;2023-08-20T01:20:55;6.30;;;4.63;;
12623;SDS011;6377;42.836;23.998;2023-08-20T01:23:49;5.20;;;4.70;;
12623;SDS011;6377;42.836;23.998;2023-08-20T01:29:31;4.53;;;4.13;;
12623;SDS011;6377;42.836;23.998;2023-08-20T01:31:59;4.93;;;4.43;;
12623;SDS011;6377;42.836;23.998;2023-08-20T01:34:27;4.35;;;3.90;;
12623;SDS011;6377;42.836;23.998;2023-08-20T01:36:55;5.55;;;4.30;;
12623;SDS011;6377;42.836;23.998;2023-08-20T01:39:22;4.57;;;4.03;;
12623;SDS011;6377;42.836;23.998;2023-08-20T01:41:50;6.38;;;4.45;;
12623;SDS011;6377;42.836;23.998;2023-08-20T01:44:17;5.28;;;4.10;;
12623;SDS011;6377;42.836;23.998;2023-08-20T01:46:46;4.57;;;4.18;;
12623;SDS011;6377;42.836;23.998;2023-08-20T01:49:13;4.78;;;4.28;;
12623;SDS011;6377;42.836;23.998;2023-08-20T01:51:40;4.40;;;3.78;;
12623;SDS011;6377;42.836;23.998;2023-08-20T01:54:08;4.72;;;4.32;;
12623;SDS011;6377;42.836;23.998;2023-08-20T01:56:35;4.93;;;4.03;;
12623;SDS011;6377;42.836;23.998;2023-08-20T01:59:02;4.93;;;4.30;;
12623;SDS011;6377;42.836;23.998;2023-08-20T02:01:30;4.60;;;3.75;;
12623;SDS011;6377;42.836;23.998;2023-08-20T02:03:58;5.57;;;4.78;;
12623;SDS011;6377;42.836;23.998;2023-08-20T02:06:26;6.30;;;4.47;;
12623;SDS011;6377;42.836;23.998;2023-08-20T02:08:53;5.00;;;4.50;;
12623;SDS011;6377;42.836;23.998;2023-08-20T02:11:20;6.20;;;4.32;;
12623;SDS011;6377;42.836;23.998;2023-08-20T02:13:47;5.97;;;4.43;;
12623;SDS011;6377;42.836;23.998;2023-08-20T02:16:15;5.05;;;4.55;;
12623;SDS011;6377;42.836;23.998;2023-08-20T02:18:42;5.70;;;4.63;;
12623;SDS011;6377;42.836;23.998;2023-08-20T02:21:11;5.93;;;4.55;;
12623;SDS011;6377;42.836;23.998;2023-08-20T02:23:38;5.55;;;4.55;;
12623;SDS011;6377;42.836;23.998;2023-08-20T02:26:06;5.63;;;4.50;;
12623;SDS011;6377;42.836;23.998;2023-08-20T02:28:33;6.07;;;4.70;;
12623;SDS011;6377;42.836;23.998;2023-08-20T02:31:03;6.90;;;4.60;;
12623;SDS011;6377;42.836;23.998;2023-08-20T02:33:31;6.07;;;4.70;;
12623;SDS011;6377;42.836;23.998;2023-08-20T02:36:00;5.25;;;4.75;;
12623;SDS011;6377;42.836;23.998;2023-08-20T02:38:30;4.97;;;4.47;;
12623;SDS011;6377;42.836;23.998;2023-08-20T02:40:57;5.40;;;4.90;;
12623;SDS011;6377;42.836;23.998;2023-08-20T02:43:24;5.18;;;4.68;;
12623;SDS011;6377;42.836;23.998;2023-08-20T02:45:52;6.45;;;5.30;;
12623;SDS011;6377;42.836;23.998;2023-08-20T02:48:19;6.50;;;5.68;;
12623;SDS011;6377;42.836;23.998;2023-08-20T02:50:46;6.40;;;5.72;;
12623;SDS011;6377;42.836;23.998;2023-08-20T02:53:16;8.88;;;5.95;;
12623;SDS011;6377;42.836;23.998;2023-08-20T02:55:44;7.90;;;5.70;;
12623;SDS011;6377;42.836;23.998;2023-08-20T02:58:12;5.95;;;5.45;;
12623;SDS011;6377;42.836;23.998;2023-08-20T03:00:39;5.82;;;5.07;;
12623;SDS011;6377;42.836;23.998;2023-08-20T03:03:08;6.22;;;5.60;;
12623;SDS011;6377;42.836;23.998;2023-08-20T03:05:35;7.13;;;4.72;;
12623;SDS011;6377;42.836;23.998;2023-08-20T03:08:03;5.88;;;5.28;;
12623;SDS011;6377;42.836;23.998;2023-08-20T03:10:30;5.00;;;4.22;;
12623;SDS011;6377;42.836;23.998;2023-08-20T03:13:00;5.72;;;4.60;;
12623;SDS011;6377;42.836;23.998;2023-08-20T03:15:27;6.82;;;4.50;;
12623;SDS011;6377;42.836;23.998;2023-08-20T03:18:04;4.45;;;4.05;;
12623;SDS011;6377;42.836;23.998;2023-08-20T03:20:32;5.30;;;4.45;;
12623;SDS011;6377;42.836;23.998;2023-08-20T03:22:59;5.25;;;4.70;;
12623;SDS011;6377;42.836;23.998;2023-08-20T03:25:29;4.63;;;4.22;;
12623;SDS011;6377;42.836;23.998;2023-08-20T03:27:57;5.53;;;4.60;;
12623;SDS011;6377;42.836;23.998;2023-08-20T03:30:26;4.88;;;4.30;;
12623;SDS011;6377;42.836;23.998;2023-08-20T03:32:53;5.95;;;4.18;;
12623;SDS011;6377;42.836;23.998;2023-08-20T03:35:20;5.55;;;5.03;;
12623;SDS011;6377;42.836;23.998;2023-08-20T03:37:47;6.57;;;4.47;;
12623;SDS011;6377;42.836;23.998;2023-08-20T03:40:14;5.07;;;4.45;;
12623;SDS011;6377;42.836;23.998;2023-08-20T03:42:43;5.30;;;4.80;;
12623;SDS011;6377;42.836;23.998;2023-08-20T03:45:19;5.63;;;5.10;;
12623;SDS011;6377;42.836;23.998;2023-08-20T03:47:48;5.50;;;4.90;;
12623;SDS011;6377;42.836;23.998;2023-08-20T03:50:15;5.70;;;4.80;;
12623;SDS011;6377;42.836;23.998;2023-08-20T03:52:42;5.82;;;4.85;;
12623;SDS011;6377;42.836;23.998;2023-08-20T03:55:10;7.55;;;6.03;;
12623;SDS011;6377;42.836;23.998;2023-08-20T03:57:37;6.03;;;5.43;;
12623;SDS011;6377;42.836;23.998;2023-08-20T04:00:04;5.80;;;5.20;;
12623;SDS011;6377;42.836;23.998;2023-08-20T04:02:34;5.85;;;5.35;;
12623;SDS011;6377;42.836;23.998;2023-08-20T04:05:04;6.22;;;5.60;;
12623;SDS011;6377;42.836;23.998;2023-08-20T04:07:31;7.05;;;5.25;;
12623;SDS011;6377;42.836;23.998;2023-08-20T04:09:58;5.85;;;5.22;;
12623;SDS011;6377;42.836;23.998;2023-08-20T04:12:25;7.72;;;5.82;;
12623;SDS011;6377;42.836;23.998;2023-08-20T04:14:52;5.97;;;5.38;;
12623;SDS011;6377;42.836;23.998;2023-08-20T04:17:19;5.75;;;5.25;;
12623;SDS011;6377;42.836;23.998;2023-08-20T04:19:47;5.82;;;5.00;;
12623;SDS011;6377;42.836;23.998;2023-08-20T04:22:15;8.45;;;5.35;;
12623;SDS011;6377;42.836;23.998;2023-08-20T04:24:42;5.65;;;4.60;;
12623;SDS011;6377;42.836;23.998;2023-08-20T04:27:10;5.97;;;5.35;;
12623;SDS011;6377;42.836;23.998;2023-08-20T04:29:37;6.53;;;5.30;;
12623;SDS011;6377;42.836;23.998;2023-08-20T04:32:04;7.13;;;5.40;;
12623;SDS011;6377;42.836;23.998;2023-08-20T04:34:32;7.90;;;5.40;;
12623;SDS011;6377;42.836;23.998;2023-08-20T04:36:59;6.18;;;5.43;;
12623;SDS011;6377;42.836;23.998;2023-08-20T04:39:28;8.23;;;5.68;;
12623;SDS011;6377;42.836;23.998;2023-08-20T04:41:58;7.07;;;5.72;;
12623;SDS011;6377;42.836;23.998;2023-08-20T04:44:25;6.43;;;5.80;;
12623;SDS011;6377;42.836;23.998;2023-08-20T04:46:52;6.72;;;6.03;;
12623;SDS011;6377;42.836;23.998;2023-08-20T04:49:19;6.78;;;6.07;;
12623;SDS011;6377;42.836;23.998;2023-08-20T04:51:47;7.80;;;6.00;;
12623;SDS011;6377;42.836;23.998;2023-08-20T04:54:14;7.72;;;6.15;;
12623;SDS011;6377;42.836;23.998;2023-08-20T04:56:43;8.68;;;6.70;;
12623;SDS011;6377;42.836;23.998;2023-08-20T04:59:10;8.05;;;5.95;;
12623;SDS011;6377;42.836;23.998;2023-08-20T05:01:37;6.97;;;6.30;;
12623;SDS011;6377;42.836;23.998;2023-08-20T05:04:05;6.68;;;5.97;;
12623;SDS011;6377;42.836;23.998;2023-08-20T05:06:32;7.72;;;6.63;;
12623;SDS011;6377;42.836;23.998;2023-08-20T05:08:59;9.65;;;6.65;;
12623;SDS011;6377;42.836;23.998;2023-08-20T05:11:26;7.78;;;6.22;;
12623;SDS011;6377;42.836;23.998;2023-08-20T05:13:58;10.50;;;6.57;;
12623;SDS011;6377;42.836;23.998;2023-08-20T05:16:25;8.45;;;6.32;;
12623;SDS011;6377;42.836;23.998;2023-08-20T05:18:52;8.35;;;6.50;;
12623;SDS011;6377;42.836;23.998;2023-08-20T05:21:19;9.25;;;5.80;;
12623;SDS011;6377;42.836;23.998;2023-08-20T05:23:46;7.70;;;6.05;;
12623;SDS011;6377;42.836;23.998;2023-08-20T05:26:13;7.95;;;6.07;;
12623;SDS011;6377;42.836;23.998;2023-08-20T05:28:41;7.65;;;6.07;;
12623;SDS011;6377;42.836;23.998;2023-08-20T05:31:09;6.70;;;6.00;;
12623;SDS011;6377;42.836;23.998;2023-08-20T05:33:37;10.63;;;7.72;;
12623;SDS011;6377;42.836;23.998;2023-08-20T05:36:04;7.22;;;6.30;;
12623;SDS011;6377;42.836;23.998;2023-08-20T05:38:32;7.85;;;6.50;;
12623;SDS011;6377;42.836;23.998;2023-08-20T05:40:59;8.95;;;6.53;;
12623;SDS011;6377;42.836;23.998;2023-08-20T05:43:26;7.47;;;6.65;;
12623;SDS011;6377;42.836;23.998;2023-08-20T05:45:53;7.50;;;6.80;;
12623;SDS011;6377;42.836;23.998;2023-08-20T05:48:22;8.65;;;6.63;;
12623;SDS011;6377;42.836;23.998;2023-08-20T05:50:50;8.10;;;6.93;;
12623;SDS011;6377;42.836;23.998;2023-08-20T05:53:17;7.43;;;6.72;;
12623;SDS011;6377;42.836;23.998;2023-08-20T05:55:44;9.70;;;7.00;;
12623;SDS011;6377;42.836;23.998;2023-08-20T05:58:11;8.63;;;6.65;;
12623;SDS011;6377;42.836;23.998;2023-08-20T06:00:39;7.13;;;6.38;;
12623;SDS011;6377;42.836;23.998;2023-08-20T06:03:06;6.90;;;6.20;;
12623;SDS011;6377;42.836;23.998;2023-08-20T06:05:35;8.95;;;6.25;;
12623;SDS011;6377;42.836;23.998;2023-08-20T06:08:02;7.28;;;5.80;;
12623;SDS011;6377;42.836;23.998;2023-08-20T06:10:30;9.05;;;7.18;;
12623;SDS011;6377;42.836;23.998;2023-08-20T06:12:58;8.10;;;6.07;;
12623;SDS011;6377;42.836;23.998;2023-08-20T06:15:25;7.90;;;6.15;;
12623;SDS011;6377;42.836;23.998;2023-08-20T06:17:56;6.60;;;5.70;;
12623;SDS011;6377;42.836;23.998;2023-08-20T06:20:24;6.18;;;5.57;;
12623;SDS011;6377;42.836;23.998;2023-08-20T06:22:52;7.03;;;5.97;;
12623;SDS011;6377;42.836;23.998;2023-08-20T06:25:20;7.07;;;6.38;;
12623;SDS011;6377;42.836;23.998;2023-08-20T06:27:47;8.95;;;6.70;;
12623;SDS011;6377;42.836;23.998;2023-08-20T06:30:14;7.22;;;6.35;;
12623;SDS011;6377;42.836;23.998;2023-08-20T06:32:42;8.27;;;6.30;;
12623;SDS011;6377;42.836;23.998;2023-08-20T06:35:11;7.68;;;6.32;;
12623;SDS011;6377;42.836;23.998;2023-08-20T06:37:42;12.00;;;6.43;;
12623;SDS011;6377;42.836;23.998;2023-08-20T06:40:14;12.25;;;6.70;;
12623;SDS011;6377;42.836;23.998;2023-08-20T06:42:42;8.48;;;6.05;;
12623;SDS011;6377;42.836;23.998;2023-08-20T06:45:09;9.75;;;6.20;;
12623;SDS011;6377;42.836;23.998;2023-08-20T06:47:36;10.55;;;6.35;;
12623;SDS011;6377;42.836;23.998;2023-08-20T06:50:04;7.72;;;6.10;;
12623;SDS011;6377;42.836;23.998;2023-08-20T06:52:32;8.55;;;5.97;;
12623;SDS011;6377;42.836;23.998;2023-08-20T06:54:59;7.28;;;6.00;;
12623;SDS011;6377;42.836;23.998;2023-08-20T06:57:29;7.25;;;5.30;;
12623;SDS011;6377;42.836;23.998;2023-08-20T06:59:56;6.88;;;5.68;;
12623;SDS011;6377;42.836;23.998;2023-08-20T07:02:23;11.95;;;5.88;;
12623;SDS011;6377;42.836;23.998;2023-08-20T07:04:51;8.75;;;6.03;;
12623;SDS011;6377;42.836;23.998;2023-08-20T07:07:18;7.00;;;6.10;;
12623;SDS011;6377;42.836;23.998;2023-08-20T07:09:45;6.72;;;5.60;;
12623;SDS011;6377;42.836;23.998;2023-08-20T07:12:13;7.40;;;5.78;;
12623;SDS011;6377;42.836;23.998;2023-08-20T07:14:41;8.25;;;5.85;;
12623;SDS011;6377;42.836;23.998;2023-08-20T07:17:08;6.65;;;5.70;;
12623;SDS011;6377;42.836;23.998;2023-08-20T07:19:36;13.82;;;6.75;;
12623;SDS011;6377;42.836;23.998;2023-08-20T07:22:03;8.05;;;5.85;;
12623;SDS011;6377;42.836;23.998;2023-08-20T07:24:31;8.75;;;5.57;;
12623;SDS011;6377;42.836;23.998;2023-08-20T07:27:00;8.13;;;5.38;;
12623;SDS011;6377;42.836;23.998;2023-08-20T07:29:29;5.95;;;5.35;;
12623;SDS011;6377;42.836;23.998;2023-08-20T07:31:58;8.07;;;5.22;;
12623;SDS011;6377;42.836;23.998;2023-08-20T07:34:28;6.03;;;5.35;;
12623;SDS011;6377;42.836;23.998;2023-08-20T07:36:56;9.98;;;5.80;;
12623;SDS011;6377;42.836;23.998;2023-08-20T07:39:23;6.75;;;5.30;;
12623;SDS011;6377;42.836;23.998;2023-08-20T07:41:50;7.55;;;5.70;;
12623;SDS011;6377;42.836;23.998;2023-08-20T07:44:17;6.05;;;5.15;;
12623;SDS011;6377;42.836;23.998;2023-08-20T07:46:45;6.60;;;4.95;;
12623;SDS011;6377;42.836;23.998;2023-08-20T07:49:13;7.07;;;5.38;;
12623;SDS011;6377;42.836;23.998;2023-08-20T07:51:41;6.03;;;5.22;;
12623;SDS011;6377;42.836;23.998;2023-08-20T07:54:08;7.82;;;5.40;;
12623;SDS011;6377;42.836;23.998;2023-08-20T07:56:35;7.80;;;5.30;;
12623;SDS011;6377;42.836;23.998;2023-08-20T07:59:03;5.25;;;4.75;;
12623;SDS011;6377;42.836;23.998;2023-08-20T08:01:30;6.32;;;5.18;;
12623;SDS011;6377;42.836;23.998;2023-08-20T08:03:57;8.05;;;5.32;;
12623;SDS011;6377;42.836;23.998;2023-08-20T08:06:26;7.25;;;5.43;;
12623;SDS011;6377;42.836;23.998;2023-08-20T08:08:53;7.43;;;5.07;;
12623;SDS011;6377;42.836;23.998;2023-08-20T08:11:21;7.25;;;4.68;;
12623;SDS011;6377;42.836;23.998;2023-08-20T08:13:49;5.88;;;4.78;;
12623;SDS011;6377;42.836;23.998;2023-08-20T08:16:16;9.63;;;4.95;;
12623;SDS011;6377;42.836;23.998;2023-08-20T08:18:47;5.32;;;4.80;;
12623;SDS011;6377;42.836;23.998;2023-08-20T08:21:14;8.32;;;5.57;;
12623;SDS011;6377;42.836;23.998;2023-08-20T08:23:42;5.63;;;4.82;;
12623;SDS011;6377;42.836;23.998;2023-08-20T08:26:10;6.78;;;4.82;;
12623;SDS011;6377;42.836;23.998;2023-08-20T08:28:37;5.53;;;4.82;;
12623;SDS011;6377;42.836;23.998;2023-08-20T08:31:05;6.78;;;4.95;;
12623;SDS011;6377;42.836;23.998;2023-08-20T08:33:33;5.93;;;4.60;;
12623;SDS011;6377;42.836;23.998;2023-08-20T08:36:00;8.18;;;5.25;;
12623;SDS011;6377;42.836;23.998;2023-08-20T08:38:27;8.07;;;5.00;;
12623;SDS011;6377;42.836;23.998;2023-08-20T08:40:56;7.97;;;4.93;;
12623;SDS011;6377;42.836;23.998;2023-08-20T08:43:24;8.48;;;4.95;;
12623;SDS011;6377;42.836;23.998;2023-08-20T08:45:52;6.32;;;4.70;;
12623;SDS011;6377;42.836;23.998;2023-08-20T08:48:24;6.20;;;4.80;;
12623;SDS011;6377;42.836;23.998;2023-08-20T08:50:52;7.85;;;4.82;;
12623;SDS011;6377;42.836;23.998;2023-08-20T08:53:19;7.60;;;4.90;;
12623;SDS011;6377;42.836;23.998;2023-08-20T08:55:48;4.78;;;4.28;;
12623;SDS011;6377;42.836;23.998;2023-08-20T08:58:16;11.88;;;5.32;;
12623;SDS011;6377;42.836;23.998;2023-08-20T09:00:44;5.95;;;4.95;;
12623;SDS011;6377;42.836;23.998;2023-08-20T09:03:11;5.60;;;4.95;;
12623;SDS011;6377;42.836;23.998;2023-08-20T09:05:47;5.85;;;4.25;;
12623;SDS011;6377;42.836;23.998;2023-08-20T09:08:21;7.85;;;4.60;;
12623;SDS011;6377;42.836;23.998;2023-08-20T09:10:50;5.15;;;4.65;;
12623;SDS011;6377;42.836;23.998;2023-08-20T09:13:19;5.88;;;4.50;;
12623;SDS011;6377;42.836;23.998;2023-08-20T09:15:50;5.50;;;4.85;;
12623;SDS011;6377;42.836;23.998;2023-08-20T09:18:18;5.97;;;4.45;;
12623;SDS011;6377;42.836;23.998;2023-08-20T09:20:47;6.20;;;4.88;;
12623;SDS011;6377;42.836;23.998;2023-08-20T09:23:14;6.60;;;4.07;;
12623;SDS011;6377;42.836;23.998;2023-08-20T09:25:42;5.28;;;4.50;;
12623;SDS011;6377;42.836;23.998;2023-08-20T09:28:10;9.45;;;4.40;;
12623;SDS011;6377;42.836;23.998;2023-08-20T09:30:39;4.65;;;4.07;;
12623;SDS011;6377;42.836;23.998;2023-08-20T09:33:07;10.40;;;4.78;;
12623;SDS011;6377;42.836;23.998;2023-08-20T09:35:36;7.80;;;4.28;;
12623;SDS011;6377;42.836;23.998;2023-08-20T09:38:04;7.95;;;4.57;;
12623;SDS011;6377;42.836;23.998;2023-08-20T09:40:31;4.65;;;4.20;;
12623;SDS011;6377;42.836;23.998;2023-08-20T09:42:59;4.28;;;3.88;;
12623;SDS011;6377;42.836;23.998;2023-08-20T09:45:28;4.68;;;4.22;;
12623;SDS011;6377;42.836;23.998;2023-08-20T09:47:57;5.30;;;4.53;;
12623;SDS011;6377;42.836;23.998;2023-08-20T09:50:26;6.10;;;3.83;;
12623;SDS011;6377;42.836;23.998;2023-08-20T09:52:56;4.30;;;3.90;;
12623;SDS011;6377;42.836;23.998;2023-08-20T09:55:30;6.03;;;4.40;;
12623;SDS011;6377;42.836;23.998;2023-08-20T09:58:02;6.18;;;4.30;;
12623;SDS011;6377;42.836;23.998;2023-08-20T10:00:29;7.55;;;4.22;;
12623;SDS011;6377;42.836;23.998;2023-08-20T10:02:58;13.75;;;4.55;;
12623;SDS011;6377;42.836;23.998;2023-08-20T10:05:26;5.53;;;3.58;;
12623;SDS011;6377;42.836;23.998;2023-08-20T10:07:54;4.13;;;3.72;;
12623;SDS011;6377;42.836;23.998;2023-08-20T10:10:22;6.93;;;3.50;;
12623;SDS011;6377;42.836;23.998;2023-08-20T10:12:50;4.25;;;3.85;;
12623;SDS011;6377;42.836;23.998;2023-08-20T10:15:18;6.10;;;3.35;;
12623;SDS011;6377;42.836;23.998;2023-08-20T10:17:49;4.35;;;3.40;;
12623;SDS011;6377;42.836;23.998;2023-08-20T10:20:18;3.30;;;2.97;;
12623;SDS011;6377;42.836;23.998;2023-08-20T10:22:45;4.38;;;3.75;;
12623;SDS011;6377;42.836;23.998;2023-08-20T10:25:22;5.53;;;3.72;;
12623;SDS011;6377;42.836;23.998;2023-08-20T10:27:50;4.10;;;3.70;;
12623;SDS011;6377;42.836;23.998;2023-08-20T10:30:18;4.28;;;3.40;;
12623;SDS011;6377;42.836;23.998;2023-08-20T10:32:48;6.07;;;3.70;;
12623;SDS011;6377;42.836;23.998;2023-08-20T10:35:18;5.50;;;3.67;;
12623;SDS011;6377;42.836;23.998;2023-08-20T10:38:02;3.97;;;3.53;;
12623;SDS011;6377;42.836;23.998;2023-08-20T10:43:29;6.90;;;6.00;;
12623;SDS011;6377;42.836;23.998;2023-08-20T10:46:06;4.78;;;4.35;;
12623;SDS011;6377;42.836;23.998;2023-08-20T10:48:39;10.30;;;5.07;;
12623;SDS011;6377;42.836;23.998;2023-08-20T10:51:13;4.93;;;3.67;;
12623;SDS011;6377;42.836;23.998;2023-08-20T10:53:42;4.18;;;3.40;;
12623;SDS011;6377;42.836;23.998;2023-08-20T10:56:10;5.18;;;3.47;;
12623;SDS011;6377;42.836;23.998;2023-08-20T10:58:43;4.82;;;3.90;;
12623;SDS011;6377;42.836;23.998;2023-08-20T11:03:56;6.68;;;4.38;;
12623;SDS011;6377;42.836;23.998;2023-08-20T11:06:27;4.07;;;3.35;;
12623;SDS011;6377;42.836;23.998;2023-08-20T11:08:58;5.18;;;3.55;;
12623;SDS011;6377;42.836;23.998;2023-08-20T11:11:25;3.15;;;2.85;;
12623;SDS011;6377;42.836;23.998;2023-08-20T11:13:53;3.75;;;3.45;;
12623;SDS011;6377;42.836;23.998;2023-08-20T11:16:20;3.78;;;3.22;;
12623;SDS011;6377;42.836;23.998;2023-08-20T11:18:47;4.55;;;3.53;;
12623;SDS011;6377;42.836;23.998;2023-08-20T11:21:14;3.58;;;3.28;;
12623;SDS011;6377;42.836;23.998;2023-08-20T11:23:43;4.45;;;3.60;;
12623;SDS011;6377;42.836;23.998;2023-08-20T11:26:10;5.00;;;3.00;;
12623;SDS011;6377;42.836;23.998;2023-08-20T11:28:37;3.63;;;3.22;;
12623;SDS011;6377;42.836;23.998;2023-08-20T11:31:04;4.18;;;3.17;;
12623;SDS011;6377;42.836;23.998;2023-08-20T11:33:32;4.25;;;3.55;;
12623;SDS011;6377;42.836;23.998;2023-08-20T11:36:01;4.95;;;3.25;;
12623;SDS011;6377;42.836;23.998;2023-08-20T11:38:29;5.53;;;3.30;;
12623;SDS011;6377;42.836;23.998;2023-08-20T11:40:58;5.22;;;3.45;;
12623;SDS011;6377;42.836;23.998;2023-08-20T11:43:26;4.20;;;3.38;;
12623;SDS011;6377;42.836;23.998;2023-08-20T11:45:54;3.83;;;3.40;;
12623;SDS011;6377;42.836;23.998;2023-08-20T11:48:22;3.63;;;3.33;;
12623;SDS011;6377;42.836;23.998;2023-08-20T11:50:49;3.78;;;3.28;;
12623;SDS011;6377;42.836;23.998;2023-08-20T11:53:20;3.67;;;3.15;;
12623;SDS011;6377;42.836;23.998;2023-08-20T11:55:48;4.63;;;3.15;;
12623;SDS011;6377;42.836;23.998;2023-08-20T11:58:18;3.28;;;2.97;;
12623;SDS011;6377;42.836;23.998;2023-08-20T12:00:48;3.42;;;2.70;;
12623;SDS011;6377;42.836;23.998;2023-08-20T12:03:18;3.28;;;2.97;;
12623;SDS011;6377;42.836;23.998;2023-08-20T12:05:47;3.35;;;3.05;;
12623;SDS011;6377;42.836;23.998;2023-08-20T12:08:15;3.53;;;3.22;;
12623;SDS011;6377;42.836;23.998;2023-08-20T12:10:43;3.78;;;3.25;;
12623;SDS011;6377;42.836;23.998;2023-08-20T12:13:10;4.10;;;3.10;;
12623;SDS011;6377;42.836;23.998;2023-08-20T12:15:39;6.28;;;3.30;;
12623;SDS011;6377;42.836;23.998;2023-08-20T12:18:06;3.33;;;3.03;;
12623;SDS011;6377;42.836;23.998;2023-08-20T12:20:34;4.15;;;3.25;;
12623;SDS011;6377;42.836;23.998;2023-08-20T12:23:03;3.40;;;3.10;;
12623;SDS011;6377;42.836;23.998;2023-08-20T12:25:34;3.40;;;3.10;;
12623;SDS011;6377;42.836;23.998;2023-08-20T12:28:02;4.22;;;2.90;;
12623;SDS011;6377;42.836;23.998;2023-08-20T12:30:31;6.28;;;3.45;;
12623;SDS011;6377;42.836;23.998;2023-08-20T12:33:00;3.40;;;3.10;;
12623;SDS011;6377;42.836;23.998;2023-08-20T12:35:28;4.28;;;3.10;;
12623;SDS011;6377;42.836;23.998;2023-08-20T12:37:57;3.30;;;3.00;;
12623;SDS011;6377;42.836;23.998;2023-08-20T12:40:24;3.55;;;3.25;;
12623;SDS011;6377;42.836;23.998;2023-08-20T12:42:51;3.90;;;3.58;;
12623;SDS011;6377;42.836;23.998;2023-08-20T12:45:19;5.15;;;3.20;;
12623;SDS011;6377;42.836;23.998;2023-08-20T12:47:46;3.80;;;3.40;;
12623;SDS011;6377;42.836;23.998;2023-08-20T12:50:15;11.52;;;3.90;;
12623;SDS011;6377;42.836;23.998;2023-08-20T12:52:42;5.95;;;3.58;;
12623;SDS011;6377;42.836;23.998;2023-08-20T12:55:09;5.40;;;3.13;;
12623;SDS011;6377;42.836;23.998;2023-08-20T12:57:41;13.63;;;6.13;;
12623;SDS011;6377;42.836;23.998;2023-08-20T13:00:19;9.45;;;3.92;;
12623;SDS011;6377;42.836;23.998;2023-08-20T13:02:46;3.78;;;3.40;;
12623;SDS011;6377;42.836;23.998;2023-08-20T13:05:16;4.78;;;3.47;;
12623;SDS011;6377;42.836;23.998;2023-08-20T13:07:44;7.15;;;4.00;;
12623;SDS011;6377;42.836;23.998;2023-08-20T13:10:11;3.88;;;3.45;;
12623;SDS011;6377;42.836;23.998;2023-08-20T13:12:40;4.97;;;3.83;;
12623;SDS011;6377;42.836;23.998;2023-08-20T13:15:08;3.55;;;3.17;;
12623;SDS011;6377;42.836;23.998;2023-08-20T13:17:36;4.30;;;3.45;;
12623;SDS011;6377;42.836;23.998;2023-08-20T13:20:04;4.88;;;3.15;;
12623;SDS011;6377;42.836;23.998;2023-08-20T13:22:35;3.75;;;3.40;;
12623;SDS011;6377;42.836;23.998;2023-08-20T13:25:02;4.18;;;3.47;;
12623;SDS011;6377;42.836;23.998;2023-08-20T13:27:29;3.38;;;3.00;;
12623;SDS011;6377;42.836;23.998;2023-08-20T13:29:57;4.35;;;3.38;;
12623;SDS011;6377;42.836;23.998;2023-08-20T13:32:24;4.20;;;3.40;;
12623;SDS011;6377;42.836;23.998;2023-08-20T13:34:51;7.30;;;6.60;;
12623;SDS011;6377;42.836;23.998;2023-08-20T13:37:18;5.35;;;3.42;;
12623;SDS011;6377;42.836;23.998;2023-08-20T13:39:47;3.80;;;3.50;;
12623;SDS011;6377;42.836;23.998;2023-08-20T13:42:14;4.80;;;3.38;;
12623;SDS011;6377;42.836;23.998;2023-08-20T13:44:42;3.70;;;3.40;;
12623;SDS011;6377;42.836;23.998;2023-08-20T13:47:09;3.83;;;3.47;;
12623;SDS011;6377;42.836;23.998;2023-08-20T13:49:37;3.95;;;3.40;;
12623;SDS011;6377;42.836;23.998;2023-08-20T13:52:04;3.65;;;3.33;;
12623;SDS011;6377;42.836;23.998;2023-08-20T13:54:32;3.70;;;3.40;;
12623;SDS011;6377;42.836;23.998;2023-08-20T13:57:00;5.55;;;3.40;;
12623;SDS011;6377;42.836;23.998;2023-08-20T13:59:28;3.60;;;3.30;;
12623;SDS011;6377;42.836;23.998;2023-08-20T14:01:56;3.92;;;3.47;;
12623;SDS011;6377;42.836;23.998;2023-08-20T14:04:23;3.70;;;3.40;;
12623;SDS011;6377;42.836;23.998;2023-08-20T14:06:50;4.25;;;3.33;;
12623;SDS011;6377;42.836;23.998;2023-08-20T14:09:18;3.53;;;3.22;;
12623;SDS011;6377;42.836;23.998;2023-08-20T14:11:45;5.35;;;3.40;;
12623;SDS011;6377;42.836;23.998;2023-08-20T14:14:14;4.05;;;3.33;;
12623;SDS011;6377;42.836;23.998;2023-08-20T14:16:41;6.20;;;3.50;;
12623;SDS011;6377;42.836;23.998;2023-08-20T14:19:08;3.80;;;3.30;;
12623;SDS011;6377;42.836;23.998;2023-08-20T14:21:35;5.32;;;3.83;;
12623;SDS011;6377;42.836;23.998;2023-08-20T14:24:03;4.82;;;3.45;;
12623;SDS011;6377;42.836;23.998;2023-08-20T14:26:30;4.05;;;3.63;;
12623;SDS011;6377;42.836;23.998;2023-08-20T14:28:58;3.80;;;3.30;;
12623;SDS011;6377;42.836;23.998;2023-08-20T14:31:27;3.33;;;3.03;;
12623;SDS011;6377;42.836;23.998;2023-08-20T14:33:54;5.15;;;3.67;;
12623;SDS011;6377;42.836;23.998;2023-08-20T14:36:21;5.47;;;3.65;;
12623;SDS011;6377;42.836;23.998;2023-08-20T14:38:48;5.82;;;3.38;;
12623;SDS011;6377;42.836;23.998;2023-08-20T14:41:16;4.75;;;3.42;;
12623;SDS011;6377;42.836;23.998;2023-08-20T14:43:43;3.83;;;3.40;;
12623;SDS011;6377;42.836;23.998;2023-08-20T14:46:10;3.50;;;3.20;;
12623;SDS011;6377;42.836;23.998;2023-08-20T14:48:39;3.50;;;3.20;;
12623;SDS011;6377;42.836;23.998;2023-08-20T14:51:08;5.28;;;3.50;;
12623;SDS011;6377;42.836;23.998;2023-08-20T14:53:35;4.65;;;3.35;;
12623;SDS011;6377;42.836;23.998;2023-08-20T14:56:02;4.10;;;3.58;;
12623;SDS011;6377;42.836;23.998;2023-08-20T14:58:29;5.47;;;3.63;;
12623;SDS011;6377;42.836;23.998;2023-08-20T15:00:57;5.63;;;3.30;;
12623;SDS011;6377;42.836;23.998;2023-08-20T15:03:25;6.30;;;3.88;;